KAIA/AIA METAR and TAF weather

Enter ICAO airport designator
Station Type Date Time Source
KAIA METAR 2020/02/25 00:53 UTC NOAA

KAIA 250053Z AUTO 31018KT 10SM FEW030 OVC060 M01/M03 A2987 RMK AO2 PK WND 31029/0014 SNE39 SLP140 P0000 T10111033


Station Type Date Time Source
KAIA Decoded METAR 2020/02/25 00:53 UTC NOAA

ALLIANCE MUNICIPAL AIRPORT, NE, United States (KAIA) 42-03N 102-48W 1196M
Feb 24, 2020 - 07:53 PM EST / 2020.02.25 0053 UTC
Wind: from the NW (310 degrees) at 21 MPH (18 KT):0
Visibility: 10 mile(s):0
Sky conditions: overcast
Precipitation last hour: A trace
Temperature: 30.0 F (-1.1 C)
Windchill: 17 F (-8 C):1
Dew Point: 26.1 F (-3.3 C)
Relative Humidity: 84%
Pressure (altimeter): 29.87 in. Hg (1011 hPa)
ob: KAIA 250053Z AUTO 31018KT 10SM FEW030 OVC060 M01/M03 A2987 RMK AO2 PK WND 31029/0014 SNE39 SLP140 P0000 T10111033
cycle: 1

Station Type Date Time Source
KAIA TAF 2020/02/24 21:12 UTC NOAA

TAF
AMD KAIA 242111Z 2421/2518 33020G26KT 1 1/2SM -SN OVC030
FM242300 32020KT P6SM SCT030 OVC040
FM250900 32025G35KT P6SM BKN035
FM251200 34026G34KT P6SM OVC025
FM251400 35027G35KT 1 1/2SM -SN BR OVC015

Example: see airport list